Time;durP1;ratioP1;P1;durP2;ratioP2;P2;SDS_P1;SDS_P2;PMS_P1;PMS_P2;Temp;Humidity;BMP_temperature;BMP_pressure;BME280_temperature;BME280_humidity;BME280_pressure;Samples;Min_cycle;Max_cycle;Signal;HPM_P1;HPM_P2
2023/07/24 00:01:17;;;;;;;5.00;4.50;;;17.90;99.90;;;;;;5070896;28;20178;-73
2023/07/24 00:03:42;;;;;;;5.03;4.63;;;17.80;99.90;;;;;;5071034;28;20167;-74
2023/07/24 00:06:08;;;;;;;4.67;4.33;;;17.80;99.90;;;;;;5070686;28;20656;-74
2023/07/24 00:08:33;;;;;;;5.20;4.73;;;17.70;99.90;;;;;;5052687;28;20201;-74
2023/07/24 00:10:59;;;;;;;5.97;5.37;;;17.70;99.90;;;;;;5070699;28;20174;-74
2023/07/24 00:13:25;;;;;;;6.00;4.93;;;17.60;99.90;;;;;;5070315;28;20169;-74
2023/07/24 00:15:51;;;;;;;5.83;5.23;;;17.50;99.90;;;;;;5071105;28;20166;-73
2023/07/24 00:18:16;;;;;;;6.27;5.30;;;17.50;99.90;;;;;;5070610;28;20693;-74
2023/07/24 00:20:42;;;;;;;5.70;5.17;;;17.60;99.90;;;;;;5070642;28;20197;-73
2023/07/24 00:23:07;;;;;;;6.73;5.37;;;17.50;99.90;;;;;;5070021;28;20228;-74
2023/07/24 00:25:33;;;;;;;6.07;5.57;;;17.50;99.90;;;;;;5070699;28;20584;-74
2023/07/24 00:27:59;;;;;;;10.17;5.33;;;17.50;99.90;;;;;;5061258;28;20205;-73
2023/07/24 00:30:24;;;;;;;6.57;5.47;;;17.50;99.90;;;;;;5091112;28;20192;-74
2023/07/24 00:32:50;;;;;;;7.23;5.40;;;17.60;99.90;;;;;;5090512;28;20245;-74
2023/07/24 00:35:16;;;;;;;6.87;5.03;;;17.60;99.90;;;;;;5072387;28;20177;-74
2023/07/24 00:37:41;;;;;;;6.90;5.63;;;17.60;99.90;;;;;;5090714;28;20231;-75
2023/07/24 00:40:07;;;;;;;9.13;5.50;;;17.70;99.90;;;;;;5084760;28;20182;-74
2023/07/24 00:42:33;;;;;;;7.33;6.73;;;17.70;99.90;;;;;;5073853;28;20167;-74
2023/07/24 00:44:58;;;;;;;5.87;5.23;;;17.70;99.90;;;;;;5073841;28;20227;-73
2023/07/24 00:47:27;;;;;;;5.50;5.00;;;17.70;99.90;;;;;;5073731;28;20206;-74
2023/07/24 00:49:53;;;;;;;8.10;5.20;;;17.70;99.90;;;;;;5073841;28;20178;-73
2023/07/24 00:52:19;;;;;;;6.57;5.07;;;17.80;99.90;;;;;;5073533;28;20166;-73
2023/07/24 00:54:46;;;;;;;6.17;5.03;;;17.80;99.90;;;;;;5073990;28;20575;-73
2023/07/24 00:57:12;;;;;;;5.63;5.03;;;17.80;99.90;;;;;;5091738;28;20184;-74
2023/07/24 00:59:38;;;;;;;7.17;5.10;;;17.80;99.90;;;;;;5093889;28;20552;-74
2023/07/24 01:02:04;;;;;;;8.63;4.90;;;17.80;99.90;;;;;;5093610;28;20173;-74
2023/07/24 01:04:29;;;;;;;6.30;5.43;;;17.80;99.90;;;;;;5093807;28;20169;-74
2023/07/24 01:06:55;;;;;;;7.57;6.20;;;17.70;99.90;;;;;;5075798;28;20224;-74
2023/07/24 01:09:21;;;;;;;7.03;6.10;;;17.70;99.90;;;;;;5093686;28;20205;-74
2023/07/24 01:11:54;;;;;;;7.30;5.37;;;17.60;99.90;;;;;;5092979;28;20207;-74
2023/07/24 01:14:25;;;;;;;6.60;5.47;;;17.60;99.90;;;;;;5093611;28;20174;-74
2023/07/24 01:16:55;;;;;;;6.10;5.50;;;17.60;99.90;;;;;;5093746;28;20195;-74
2023/07/24 01:19:35;;;;;;;6.00;5.13;;;17.50;99.90;;;;;;5093668;28;20209;-73
2023/07/24 01:22:12;;;;;;;8.33;5.63;;;17.50;99.90;;;;;;5093285;28;20244;-73
2023/07/24 01:24:59;;;;;;;7.77;6.93;;;17.40;99.90;;;;;;5079451;28;20178;-73
2023/07/24 01:27:25;;;;;;;13.13;5.77;;;17.40;99.90;;;;;;5073265;28;20202;-73
2023/07/24 01:29:51;;;;;;;6.97;5.97;;;17.40;99.90;;;;;;5073347;28;20308;-73
2023/07/24 01:32:18;;;;;;;8.97;6.13;;;17.30;99.90;;;;;;5072860;28;20231;-73
2023/07/24 01:34:44;;;;;;;6.53;5.93;;;17.30;99.90;;;;;;5073186;28;20534;-73
2023/07/24 01:37:11;;;;;;;8.50;6.90;;;17.30;99.90;;;;;;5072829;28;20166;-73
2023/07/24 01:39:38;;;;;;;7.30;5.80;;;17.30;99.90;;;;;;5073111;28;20166;-73
2023/07/24 01:42:04;;;;;;;8.73;6.43;;;17.20;99.90;;;;;;5072674;28;20178;-73
2023/07/24 01:44:30;;;;;;;6.73;5.87;;;17.20;99.90;;;;;;5072891;28;20201;-73
2023/07/24 01:46:55;;;;;;;8.10;6.07;;;17.20;99.90;;;;;;5072679;28;20237;-73
2023/07/24 01:49:21;;;;;;;8.57;6.87;;;17.30;99.90;;;;;;5072822;28;20191;-73
2023/07/24 01:51:46;;;;;;;8.40;6.33;;;17.30;99.90;;;;;;5071470;28;20178;-73
2023/07/24 01:54:12;;;;;;;6.73;6.03;;;17.30;99.90;;;;;;5072598;28;20169;-73
2023/07/24 01:56:39;;;;;;;7.97;6.73;;;17.30;99.90;;;;;;5067185;28;20182;-73
2023/07/24 01:59:05;;;;;;;7.97;6.30;;;17.30;99.90;;;;;;5092593;28;20560;-73
2023/07/24 02:01:31;;;;;;;14.73;6.90;;;17.30;99.90;;;;;;5074516;28;20204;-74
2023/07/24 02:03:57;;;;;;;9.30;6.63;;;17.30;99.90;;;;;;5074508;28;20209;-74
2023/07/24 02:06:22;;;;;;;7.27;6.67;;;17.40;99.90;;;;;;5074586;28;20201;-73
2023/07/24 02:08:48;;;;;;;8.87;6.60;;;17.40;99.90;;;;;;5092731;28;20553;-74
2023/07/24 02:11:17;;;;;;;8.57;6.33;;;17.40;99.90;;;;;;5090619;28;20564;-73
2023/07/24 02:13:46;;;;;;;9.70;6.60;;;17.40;99.90;;;;;;5092471;28;20252;-73
2023/07/24 02:16:13;;;;;;;8.67;6.73;;;17.40;99.90;;;;;;5092366;28;20556;-74
2023/07/24 02:18:41;;;;;;;13.23;7.50;;;17.40;99.90;;;;;;5074252;28;20205;-74
2023/07/24 02:21:06;;;;;;;11.00;6.20;;;17.40;99.90;;;;;;5092301;28;20208;-73
2023/07/24 02:23:32;;;;;;;9.17;6.80;;;17.40;99.90;;;;;;5085458;28;20586;-73
2023/07/24 02:25:57;;;;;;;6.57;5.97;;;17.40;99.90;;;;;;5054095;28;20549;-73
2023/07/24 02:28:23;;;;;;;9.23;7.20;;;17.40;99.90;;;;;;5072249;28;20244;-73
2023/07/24 02:30:50;;;;;;;9.57;6.90;;;17.40;99.90;;;;;;5072209;28;20367;-73
2023/07/24 02:33:15;;;;;;;7.93;7.13;;;17.50;99.90;;;;;;5071506;28;20587;-74
2023/07/24 02:35:41;;;;;;;12.07;6.80;;;17.50;99.90;;;;;;5072122;28;20170;-74
2023/07/24 02:38:07;;;;;;;8.03;6.67;;;17.50;99.90;;;;;;5071835;28;20239;-73
2023/07/24 02:40:34;;;;;;;10.23;7.00;;;17.50;99.90;;;;;;5054158;28;20178;-74
2023/07/24 02:42:59;;;;;;;8.43;7.20;;;17.50;99.90;;;;;;5071196;28;20170;-73
2023/07/24 02:45:25;;;;;;;8.03;7.23;;;17.50;99.90;;;;;;5071799;28;20531;-74
2023/07/24 02:47:50;;;;;;;9.30;7.73;;;17.50;99.90;;;;;;5071726;28;20263;-74
2023/07/24 02:50:16;;;;;;;10.07;6.70;;;17.50;99.90;;;;;;5071724;28;20174;-74
2023/07/24 02:52:42;;;;;;;12.33;7.40;;;17.50;99.90;;;;;;5087353;28;20190;-74
2023/07/24 02:55:07;;;;;;;8.87;6.80;;;17.50;99.90;;;;;;5091713;28;20173;-73
2023/07/24 02:57:33;;;;;;;10.03;7.00;;;17.50;99.90;;;;;;5073695;28;20660;-73
2023/07/24 02:59:59;;;;;;;8.13;6.77;;;17.50;99.90;;;;;;5091722;28;20252;-73
2023/07/24 03:02:24;;;;;;;9.33;7.03;;;17.60;99.90;;;;;;5072941;28;20543;-73
2023/07/24 03:04:50;;;;;;;7.93;6.57;;;17.60;99.90;;;;;;5091762;28;20701;-73
2023/07/24 03:07:16;;;;;;;11.20;6.30;;;17.60;99.90;;;;;;5091369;28;20216;-73
2023/07/24 03:09:41;;;;;;;7.70;6.63;;;17.60;99.90;;;;;;5091801;28;20632;-73
2023/07/24 03:12:07;;;;;;;8.00;6.47;;;17.60;99.90;;;;;;5091182;28;20211;-73
2023/07/24 03:14:33;;;;;;;9.60;6.23;;;17.60;99.90;;;;;;5091743;28;20201;-73
2023/07/24 03:16:58;;;;;;;9.93;6.50;;;17.60;99.90;;;;;;5090640;28;20634;-73
2023/07/24 03:19:24;;;;;;;9.23;6.90;;;17.60;99.90;;;;;;5086118;28;20383;-73
2023/07/24 03:21:50;;;;;;;10.37;6.40;;;17.60;99.90;;;;;;5053223;28;20216;-73
2023/07/24 03:24:16;;;;;;;14.73;6.90;;;17.60;99.90;;;;;;5070878;28;20186;-73
2023/07/24 03:26:42;;;;;;;7.70;6.70;;;17.60;99.90;;;;;;5070434;28;20214;-73
2023/07/24 03:29:08;;;;;;;7.37;6.67;;;17.60;99.90;;;;;;5071045;28;20216;-73
2023/07/24 03:31:33;;;;;;;11.10;6.87;;;17.60;99.90;;;;;;5070997;28;20186;-73
2023/07/24 03:33:59;;;;;;;9.10;6.83;;;17.50;99.90;;;;;;5070965;28;20174;-73
2023/07/24 03:36:24;;;;;;;11.13;6.43;;;17.50;99.90;;;;;;5071162;28;20201;-73
2023/07/24 03:38:50;;;;;;;12.67;7.27;;;17.50;99.90;;;;;;5071216;28;20200;-73
2023/07/24 03:41:16;;;;;;;7.83;6.50;;;17.50;99.90;;;;;;5052723;28;20660;-73
2023/07/24 03:43:41;;;;;;;11.53;6.30;;;17.50;99.90;;;;;;5071182;28;20170;-73
2023/07/24 03:46:07;;;;;;;8.73;6.97;;;17.50;99.90;;;;;;5052934;28;20641;-73
2023/07/24 03:48:34;;;;;;;11.00;6.27;;;17.60;99.90;;;;;;5085335;28;20197;-76
2023/07/24 03:51:01;;;;;;;11.67;6.97;;;17.60;99.90;;;;;;5091182;28;20170;-73
2023/07/24 03:53:26;;;;;;;9.80;6.47;;;17.60;99.90;;;;;;5091141;28;20173;-73
2023/07/24 03:55:52;;;;;;;9.17;7.03;;;17.60;99.90;;;;;;5091349;28;20181;-73
2023/07/24 03:58:18;;;;;;;10.40;7.13;;;17.60;99.90;;;;;;5091111;28;20298;-73
2023/07/24 04:00:43;;;;;;;10.90;6.60;;;17.50;99.90;;;;;;5091335;28;20520;-73
2023/07/24 04:03:09;;;;;;;9.63;6.10;;;17.50;99.90;;;;;;5090595;28;20181;-73
2023/07/24 04:05:36;;;;;;;10.57;6.97;;;17.50;99.90;;;;;;5091379;28;20178;-73
2023/07/24 04:08:02;;;;;;;9.30;7.50;;;17.60;99.90;;;;;;5072982;28;20204;-73
2023/07/24 04:10:28;;;;;;;11.20;7.13;;;17.60;99.90;;;;;;5091395;28;20955;-74
2023/07/24 04:12:54;;;;;;;11.67;7.50;;;17.60;99.90;;;;;;5072676;28;20180;-73
2023/07/24 04:15:20;;;;;;;8.00;6.57;;;17.60;99.90;;;;;;5089865;28;20763;-73
2023/07/24 04:17:45;;;;;;;8.77;6.20;;;17.60;99.90;;;;;;5074691;28;20217;-73
2023/07/24 04:20:11;;;;;;;8.60;6.53;;;17.60;99.90;;;;;;5074609;28;20240;-73
2023/07/24 04:22:37;;;;;;;12.40;7.00;;;17.60;99.90;;;;;;5074353;28;20189;-73
2023/07/24 04:25:03;;;;;;;7.03;6.27;;;17.60;99.90;;;;;;5056334;28;20186;-73
2023/07/24 04:27:28;;;;;;;11.10;6.70;;;17.60;99.90;;;;;;5073775;28;20202;-73
2023/07/24 04:29:54;;;;;;;7.93;6.60;;;17.60;99.90;;;;;;5074156;28;20642;-73
2023/07/24 04:32:20;;;;;;;11.77;7.23;;;17.60;99.90;;;;;;5074035;28;20174;-73
2023/07/24 04:34:45;;;;;;;8.00;6.40;;;17.70;99.90;;;;;;5074597;28;20249;-73
2023/07/24 04:37:11;;;;;;;10.37;6.70;;;17.70;99.90;;;;;;5055906;28;20641;-73
2023/07/24 04:39:38;;;;;;;10.37;6.70;;;17.80;99.90;;;;;;5074334;28;20201;-73
2023/07/24 04:42:04;;;;;;;8.03;6.50;;;17.80;99.90;;;;;;5055660;28;20186;-73
2023/07/24 04:44:31;;;;;;;8.87;7.03;;;17.80;99.90;;;;;;5086696;28;20178;-73
2023/07/24 04:46:57;;;;;;;8.43;6.40;;;17.90;99.90;;;;;;5075989;28;20213;-73
2023/07/24 04:49:24;;;;;;;7.53;6.27;;;17.90;99.90;;;;;;5094159;28;20189;-73
2023/07/24 04:51:50;;;;;;;10.13;6.20;;;17.90;99.90;;;;;;5094058;28;20256;-73
2023/07/24 04:54:16;;;;;;;7.93;6.60;;;17.90;99.90;;;;;;5075986;28;20257;-73
2023/07/24 04:56:41;;;;;;;7.33;6.60;;;17.90;99.90;;;;;;5094226;28;20180;-73
2023/07/24 04:59:07;;;;;;;12.07;7.13;;;18.00;99.90;;;;;;5093732;28;20276;-73
2023/07/24 05:01:32;;;;;;;11.67;6.53;;;18.00;99.90;;;;;;5093555;28;20177;-73
2023/07/24 05:03:58;;;;;;;8.67;6.70;;;18.00;99.90;;;;;;5093739;28;20177;-73
2023/07/24 05:06:24;;;;;;;7.70;6.73;;;18.10;99.90;;;;;;5093730;28;20208;-73
2023/07/24 05:08:49;;;;;;;9.73;6.43;;;18.10;99.90;;;;;;5091545;28;20535;-73
2023/07/24 05:11:15;;;;;;;9.93;6.73;;;18.20;99.90;;;;;;5053708;28;20573;-73
2023/07/24 05:13:40;;;;;;;11.70;7.03;;;18.20;99.90;;;;;;5073503;28;20174;-73
2023/07/24 05:16:06;;;;;;;8.30;6.90;;;18.30;99.90;;;;;;5073415;28;20178;-73
2023/07/24 05:18:31;;;;;;;10.57;7.23;;;18.40;99.90;;;;;;5073316;28;20228;-73
2023/07/24 05:20:57;;;;;;;9.63;7.97;;;18.40;99.90;;;;;;5073024;28;20166;-73
2023/07/24 05:23:23;;;;;;;10.57;6.23;;;18.40;99.90;;;;;;5053660;28;20193;-72
2023/07/24 05:25:57;;;;;;;7.83;5.97;;;18.50;99.90;;;;;;5071813;28;20190;-73
2023/07/24 05:28:23;;;;;;;10.07;6.53;;;18.50;99.90;;;;;;5073050;28;20238;-73
2023/07/24 05:30:48;;;;;;;9.23;6.20;;;18.60;99.90;;;;;;5055358;28;20169;-73
2023/07/24 05:33:14;;;;;;;8.23;6.90;;;18.70;99.90;;;;;;5072401;28;20177;-73
2023/07/24 05:35:40;;;;;;;8.10;6.53;;;18.80;99.90;;;;;;5054965;28;20775;-73
2023/07/24 05:38:05;;;;;;;6.67;5.90;;;18.80;99.90;;;;;;5083314;28;20197;-72
2023/07/24 05:40:31;;;;;;;7.03;6.43;;;19.00;99.90;;;;;;5075104;28;20666;-71
2023/07/24 05:42:56;;;;;;;9.83;6.60;;;19.00;99.90;;;;;;5092883;28;20246;-73
2023/07/24 05:45:22;;;;;;;10.73;6.13;;;19.10;99.90;;;;;;5074724;28;20200;-72
2023/07/24 05:47:48;;;;;;;9.67;6.30;;;19.20;99.90;;;;;;5074522;28;20707;-72
2023/07/24 05:50:13;;;;;;;6.37;5.17;;;19.30;99.90;;;;;;5092605;28;20172;-70
2023/07/24 05:52:39;;;;;;;8.03;4.97;;;19.30;99.90;;;;;;5074144;28;20174;-71
2023/07/24 05:55:06;;;;;;;8.97;5.00;;;19.30;99.90;;;;;;5074569;28;20195;-72
2023/07/24 05:57:31;;;;;;;9.40;5.57;;;19.40;99.90;;;;;;5092665;28;20746;-71
2023/07/24 05:59:57;;;;;;;9.37;5.13;;;19.40;99.90;;;;;;5092620;28;20177;-73
2023/07/24 06:02:22;;;;;;;5.17;4.73;;;19.60;99.90;;;;;;5092308;28;20208;-73
2023/07/24 06:04:48;;;;;;;5.57;4.70;;;19.70;99.90;;;;;;5091356;28;20184;-73
2023/07/24 06:07:13;;;;;;;5.30;4.83;;;19.90;99.90;;;;;;5071647;28;20214;-71
2023/07/24 06:09:39;;;;;;;7.40;4.70;;;20.00;99.90;;;;;;5054244;28;20170;-70
2023/07/24 06:12:05;;;;;;;5.07;4.33;;;20.10;99.90;;;;;;5053720;28;20170;-71
2023/07/24 06:14:30;;;;;;;6.00;5.23;;;20.20;99.90;;;;;;5054371;28;20623;-71
2023/07/24 06:16:56;;;;;;;5.03;4.53;;;20.30;99.90;;;;;;5075179;28;20698;-72
2023/07/24 06:19:21;;;;;;;5.20;4.70;;;20.30;99.90;;;;;;5088056;28;20209;-72
2023/07/24 06:21:47;;;;;;;5.10;4.30;;;20.40;99.90;;;;;;5074103;28;20181;-73
2023/07/24 06:24:13;;;;;;;5.60;4.90;;;20.50;99.90;;;;;;5074196;28;20653;-73
2023/07/24 06:26:39;;;;;;;5.40;4.30;;;20.60;99.90;;;;;;5092355;28;20220;-72
2023/07/24 06:29:05;;;;;;;4.77;4.03;;;20.70;99.90;;;;;;5092174;28;20189;-73
2023/07/24 06:31:31;;;;;;;7.23;4.40;;;20.80;99.90;;;;;;5090772;28;20705;-74
2023/07/24 06:33:56;;;;;;;4.73;4.23;;;20.80;99.90;;;;;;5092036;28;20569;-71
2023/07/24 06:36:22;;;;;;;5.87;4.00;;;20.70;99.90;;;;;;5091646;28;20201;-73
2023/07/24 06:38:47;;;;;;;4.60;4.17;;;20.70;99.90;;;;;;5074077;28;20584;-73
2023/07/24 06:41:16;;;;;;;7.10;4.20;;;20.60;99.90;;;;;;5091827;28;20188;-73
2023/07/24 06:43:42;;;;;;;6.00;3.97;;;20.60;99.90;;;;;;5092060;28;20230;-74
2023/07/24 06:46:08;;;;;;;5.13;4.63;;;20.60;99.90;;;;;;5092050;28;20256;-73
2023/07/24 06:48:34;;;;;;;4.13;3.73;;;20.60;99.90;;;;;;5092388;28;20185;-74
2023/07/24 06:50:59;;;;;;;4.10;3.70;;;20.60;99.90;;;;;;5091823;28;20201;-74
2023/07/24 06:53:25;;;;;;;6.47;4.10;;;20.60;99.90;;;;;;5091370;28;20654;-74
2023/07/24 06:55:50;;;;;;;4.63;4.10;;;20.70;99.90;;;;;;5092148;28;20166;-73
2023/07/24 06:58:16;;;;;;;4.43;4.03;;;20.70;99.90;;;;;;5091723;28;20270;-74
2023/07/24 07:00:41;;;;;;;5.43;4.23;;;20.90;99.90;;;;;;5092182;28;20252;-74
2023/07/24 07:03:07;;;;;;;4.80;3.97;;;21.00;99.90;;;;;;5091669;28;20629;-74
2023/07/24 07:05:33;;;;;;;5.00;4.33;;;21.10;99.90;;;;;;5091720;28;20173;-74
2023/07/24 07:07:59;;;;;;;5.57;3.80;;;21.30;99.90;;;;;;5091525;28;20466;-74
2023/07/24 07:10:24;;;;;;;4.53;4.10;;;21.40;99.90;;;;;;5073343;28;20202;-73
2023/07/24 07:12:50;;;;;;;4.88;4.00;;;21.50;99.90;;;;;;5091219;28;20162;-73
2023/07/24 07:15:15;;;;;;;4.68;3.47;;;21.70;99.90;;;;;;5091366;28;20207;-73
2023/07/24 07:17:41;;;;;;;6.75;4.03;;;21.70;99.90;;;;;;5091666;28;20193;-74
2023/07/24 07:20:07;;;;;;;3.83;3.42;;;21.60;99.90;;;;;;5091981;28;20250;-74
2023/07/24 07:22:33;;;;;;;4.47;3.75;;;21.60;99.90;;;;;;5091301;28;20181;-74
2023/07/24 07:24:58;;;;;;;5.63;3.63;;;21.50;99.90;;;;;;5091498;28;20201;-74
2023/07/24 07:27:24;;;;;;;4.60;3.72;;;21.50;99.90;;;;;;5091089;28;20205;-72
2023/07/24 07:29:49;;;;;;;6.63;4.23;;;21.50;99.90;;;;;;5073411;28;20536;-76
2023/07/24 07:32:15;;;;;;;3.83;3.40;;;21.30;99.90;;;;;;5090308;28;20257;-74
2023/07/24 07:34:40;;;;;;;4.57;3.58;;;21.20;99.90;;;;;;5091652;28;20177;-74
2023/07/24 07:37:06;;;;;;;6.23;3.60;;;21.30;99.90;;;;;;5091444;28;20173;-74
2023/07/24 07:39:32;;;;;;;4.70;4.10;;;21.40;99.90;;;;;;5091008;28;20197;-74
2023/07/24 07:41:58;;;;;;;4.20;3.63;;;21.50;49.00;;;;;;5072841;28;20173;-76
2023/07/24 07:44:23;;;;;;;4.07;3.78;;;21.60;41.90;;;;;;5091228;28;20256;-75
2023/07/24 07:46:49;;;;;;;4.40;4.00;;;21.70;1.00;;;;;;5073075;28;20205;-75
2023/07/24 07:49:15;;;;;;;4.50;4.10;;;21.70;1.00;;;;;;5094222;28;20575;-76
2023/07/24 07:51:40;;;;;;;5.05;4.57;;;22.00;1.00;;;;;;5077051;28;20193;-76
2023/07/24 07:54:06;;;;;;;4.53;4.13;;;22.20;1.00;;;;;;5095101;28;20177;-73
2023/07/24 07:56:31;;;;;;;4.18;3.60;;;22.20;99.90;;;;;;5095426;28;20172;-75
2023/07/24 07:58:57;;;;;;;5.43;3.92;;;22.20;1.00;;;;;;5095063;28;20189;-75
2023/07/24 08:01:22;;;;;;;3.65;3.35;;;22.30;1.00;;;;;;5076778;28;20177;-75
2023/07/24 08:03:48;;;;;;;4.07;3.67;;;22.30;1.00;;;;;;5095197;28;20200;-75
2023/07/24 08:06:14;;;;;;;5.65;3.75;;;22.60;1.00;;;;;;5094945;28;20205;-76
2023/07/24 08:08:39;;;;;;;5.60;3.83;;;22.90;1.00;;;;;;5076904;28;20205;-75
2023/07/24 08:11:08;;;;;;;4.43;4.00;;;23.10;1.00;;;;;;5095133;28;20169;-75
2023/07/24 08:13:34;;;;;;;4.35;3.95;;;23.00;99.90;;;;;;5094394;28;20169;-75
2023/07/24 08:16:02;;;;;;;4.63;4.18;;;22.90;1.00;;;;;;5094719;28;20170;-73
2023/07/24 08:18:31;;;;;;;4.10;3.53;;;22.80;99.90;;;;;;5094732;28;20201;-74
2023/07/24 08:20:57;;;;;;;4.57;3.50;;;22.80;99.90;;;;;;5076735;28;20202;-74
2023/07/24 08:23:22;;;;;;;4.18;3.85;;;22.80;99.90;;;;;;5094450;28;20696;-76
2023/07/24 08:25:54;;;;;;;4.20;3.80;;;22.80;1.00;;;;;;5094833;28;20169;-75
2023/07/24 08:28:20;;;;;;;4.22;3.83;;;22.90;1.00;;;;;;5076401;28;20546;-75
2023/07/24 08:30:47;;;;;;;3.90;3.50;;;22.90;99.90;;;;;;5075611;28;20178;-74
2023/07/24 08:33:12;;;;;;;4.60;4.00;;;22.90;99.90;;;;;;5075788;28;20177;-75
2023/07/24 08:35:38;;;;;;;4.43;3.67;;;22.80;99.90;;;;;;5094418;28;20269;-75
2023/07/24 08:38:04;;;;;;;4.30;3.78;;;22.80;99.90;;;;;;5076103;28;20672;-74
2023/07/24 08:40:29;;;;;;;5.15;4.53;;;22.90;99.90;;;;;;5094401;28;20535;-75
2023/07/24 08:42:56;;;;;;;6.15;4.07;;;23.00;99.90;;;;;;5094147;28;20178;-74
2023/07/24 08:45:23;;;;;;;4.13;3.80;;;23.00;1.00;;;;;;5094191;28;20178;-75
2023/07/24 08:47:50;;;;;;;4.45;4.05;;;23.10;12.60;;;;;;5094259;28;20200;-75
2023/07/24 08:50:17;;;;;;;4.80;4.25;;;23.30;3.60;;;;;;5094177;28;20214;-74
2023/07/24 08:52:44;;;;;;;5.53;4.03;;;23.00;1.00;;;;;;5075588;28;20173;-75
2023/07/24 08:55:10;;;;;;;5.35;4.85;;;22.90;7.20;;;;;;5094063;28;20170;-75
2023/07/24 08:57:36;;;;;;;4.70;4.30;;;22.60;95.60;;;;;;5094121;28;20193;-75
2023/07/24 09:00:04;;;;;;;4.15;3.80;;;22.40;99.90;;;;;;5093461;28;20200;-75
2023/07/24 09:02:35;;;;;;;4.32;3.65;;;22.20;1.00;;;;;;5075652;28;20265;-73
2023/07/24 09:05:01;;;;;;;4.30;3.75;;;22.10;1.00;;;;;;5075803;28;20185;-75
2023/07/24 09:07:26;;;;;;;6.00;4.38;;;22.00;1.00;;;;;;5093703;28;20197;-75
2023/07/24 09:09:52;;;;;;;3.92;3.53;;;21.90;12.40;;;;;;5075704;28;20656;-75
2023/07/24 09:12:18;;;;;;;4.35;3.95;;;21.80;1.00;;;;;;5075351;28;20227;-75
2023/07/24 09:14:45;;;;;;;4.20;3.80;;;21.80;89.90;;;;;;5075745;28;20196;-75
2023/07/24 09:17:11;;;;;;;4.10;3.70;;;21.70;99.90;;;;;;5093780;28;20165;-76
2023/07/24 09:19:37;;;;;;;4.68;4.18;;;21.80;1.00;;;;;;5093600;28;20239;-75
2023/07/24 09:22:14;;;;;;;4.60;4.20;;;21.70;1.00;;;;;;5093299;28;20637;-75
2023/07/24 09:24:52;;;;;;;5.00;4.45;;;21.60;1.00;;;;;;5093869;28;20272;-76
2023/07/24 09:27:19;;;;;;;4.95;4.47;;;21.60;1.00;;;;;;5093452;28;20193;-76
2023/07/24 09:29:45;;;;;;;7.10;4.10;;;21.60;1.00;;;;;;5093483;28;20584;-76
2023/07/24 09:32:22;;;;;;;4.80;4.40;;;21.60;1.00;;;;;;5074192;28;20177;-76
2023/07/24 09:34:50;;;;;;;4.05;3.75;;;21.80;1.00;;;;;;5075258;28;20583;-76
2023/07/24 09:37:42;;;;;;;3.38;3.17;;;21.90;99.90;;;;;;5075047;28;20201;-76
2023/07/24 09:40:10;;;;;;;3.53;3.20;;;22.20;39.30;;;;;;5088680;28;20185;-76
2023/07/24 09:42:37;;;;;;;4.32;3.33;;;22.50;1.00;;;;;;5074876;28;20177;-76
2023/07/24 09:45:04;;;;;;;4.32;3.00;;;22.70;1.00;;;;;;5093235;28;20177;-76
2023/07/24 09:47:30;;;;;;;3.92;3.40;;;22.90;99.90;;;;;;5090789;28;20284;-76
2023/07/24 09:49:56;;;;;;;3.63;3.30;;;23.20;90.80;;;;;;5081269;28;20239;-76
2023/07/24 09:52:24;;;;;;;4.40;3.92;;;23.60;99.90;;;;;;5072528;28;20506;-76
2023/07/24 09:54:56;;;;;;;4.20;3.80;;;24.00;26.50;;;;;;5072781;28;20608;-76
2023/07/24 09:57:23;;;;;;;5.35;4.95;;;24.40;1.00;;;;;;5087329;28;20178;-76
2023/07/24 09:59:51;;;;;;;4.43;4.13;;;24.50;1.00;;;;;;5093045;28;20169;-76
2023/07/24 10:02:17;;;;;;;4.03;3.70;;;24.50;1.00;;;;;;5092686;28;20162;-76
2023/07/24 10:04:45;;;;;;;3.67;3.38;;;24.50;1.00;;;;;;5074800;28;20181;-76
2023/07/24 10:07:11;;;;;;;3.92;3.30;;;24.60;1.00;;;;;;5074923;28;20255;-76
2023/07/24 10:09:37;;;;;;;3.45;3.15;;;24.80;1.00;;;;;;5054489;28;20174;-76
2023/07/24 10:12:03;;;;;;;5.20;4.80;;;24.80;1.00;;;;;;5053101;28;20174;-76
2023/07/24 10:14:30;;;;;;;4.30;3.97;;;24.80;1.00;;;;;;5077172;28;20598;-77
2023/07/24 10:16:56;;;;;;;3.70;3.40;;;25.00;1.00;;;;;;5092480;28;20257;-76
2023/07/24 10:19:22;;;;;;;3.30;3.00;;;25.10;1.00;;;;;;5077656;28;20213;-76
2023/07/24 10:21:49;;;;;;;4.20;3.15;;;25.10;1.00;;;;;;5072843;28;20182;-76
2023/07/24 10:24:15;;;;;;;3.33;3.03;;;25.10;1.00;;;;;;5073115;28;20194;-74
2023/07/24 10:26:41;;;;;;;5.03;4.72;;;25.60;1.00;;;;;;5072783;28;20206;-76
2023/07/24 10:29:08;;;;;;;4.65;3.92;;;25.80;1.00;;;;;;5053594;28;20703;-76
2023/07/24 10:31:34;;;;;;;4.65;4.28;;;26.30;1.00;;;;;;5086196;28;20209;-76
2023/07/24 10:34:06;;;;;;;4.35;4.05;;;26.30;1.00;;;;;;5091231;28;20579;-76
2023/07/24 10:36:36;;;;;;;4.88;4.57;;;26.50;1.00;;;;;;5091903;28;20181;-76
2023/07/24 10:39:02;;;;;;;5.18;4.78;;;26.30;1.00;;;;;;5090412;28;20221;-76
2023/07/24 10:41:35;;;;;;;5.30;4.93;;;26.20;1.00;;;;;;5091903;28;20169;-76
2023/07/24 10:44:07;;;;;;;5.18;4.88;;;26.00;1.00;;;;;;5068429;28;20564;-76
2023/07/24 10:46:42;;;;;;;3.95;3.65;;;26.10;1.00;;;;;;5068402;28;20669;-77
2023/07/24 10:49:08;;;;;;;5.40;5.03;;;26.10;1.00;;;;;;5050691;28;20195;-76
2023/07/24 10:51:37;;;;;;;5.45;4.95;;;26.30;1.00;;;;;;5048298;28;20202;-76
2023/07/24 10:54:03;;;;;;;4.00;3.70;;;26.30;1.00;;;;;;5060701;28;20655;-76
2023/07/24 10:56:29;;;;;;;3.88;3.58;;;25.90;1.00;;;;;;5311787;22;20223;-71
2023/07/24 10:58:55;;;;;;;4.63;4.22;;;25.50;1.00;;;;;;5028402;28;20663;-70
2023/07/24 11:01:21;;;;;;;7.13;6.72;;;25.30;1.00;;;;;;5026835;28;20644;-71
2023/07/24 11:03:49;;;;;;;6.13;5.72;;;25.10;1.00;;;;;;5028426;28;20226;-72
2023/07/24 11:06:19;;;;;;;5.25;4.95;;;24.90;1.00;;;;;;5028217;28;20279;-72
2023/07/24 11:08:53;;;;;;;5.35;4.95;;;24.80;1.00;;;;;;5028619;28;20191;-72
2023/07/24 11:11:18;;;;;;;5.78;5.47;;;24.60;1.00;;;;;;5027901;28;20267;-73
2023/07/24 11:13:44;;;;;;;7.30;6.78;;;24.50;1.00;;;;;;5028247;28;20254;-72
2023/07/24 11:16:09;;;;;;;5.65;5.25;;;24.40;1.00;;;;;;5028129;28;20199;-72
2023/07/24 11:18:48;;;;;;;6.65;6.05;;;24.20;1.00;;;;;;5028425;28;20184;-72
2023/07/24 11:21:14;;;;;;;5.25;4.85;;;24.00;1.00;;;;;;5027144;28;20184;-72
2023/07/24 11:24:07;;;;;;;7.63;4.45;;;23.70;1.00;;;;;;5027113;28;20242;-72
2023/07/24 11:26:34;;;;;;;7.38;4.80;;;23.30;99.90;;;;;;5022966;28;20208;-74
2023/07/24 11:28:59;;;;;;;14.63;8.25;;;22.80;99.90;;;;;;5028124;28;20184;-74
2023/07/24 11:31:25;;;;;;;6.23;4.27;;;21.70;99.90;;;;;;5028327;28;20172;-73
2023/07/24 11:33:52;;;;;;;3.00;2.90;;;20.00;99.90;;;;;;5028402;28;20259;-73
2023/07/24 11:36:18;;;;;;;2.90;2.80;;;19.10;99.90;;;;;;5029324;28;20187;-75
2023/07/24 11:38:48;;;;;;;3.10;3.00;;;18.40;99.90;;;;;;5028943;28;20174;-74
2023/07/24 11:41:14;;;;;;;2.07;1.97;;;17.80;99.90;;;;;;5028463;28;20183;-75
2023/07/24 11:43:48;;;;;;;1.90;1.80;;;17.90;99.90;;;;;;5029516;28;20195;-76
2023/07/24 11:46:26;;;;;;;1.80;1.70;;;18.30;99.90;;;;;;5029195;28;20199;-74
2023/07/24 11:48:53;;;;;;;1.80;1.70;;;19.20;99.90;;;;;;5028281;28;20167;-73
2023/07/24 11:51:19;;;;;;;1.70;1.60;;;19.70;99.90;;;;;;5018438;28;20188;-73
2023/07/24 11:53:45;;;;;;;1.90;1.80;;;19.80;99.90;;;;;;5004455;28;20535;-74
2023/07/24 11:56:15;;;;;;;2.17;2.07;;;19.70;99.90;;;;;;4993484;28;20327;-74
2023/07/24 11:58:41;;;;;;;2.00;1.90;;;19.30;99.90;;;;;;5001502;28;20180;-72
2023/07/24 12:01:06;;;;;;;2.00;1.90;;;19.10;99.90;;;;;;5014473;28;20263;-72
2023/07/24 12:03:32;;;;;;;1.90;1.80;;;18.90;99.90;;;;;;5014571;28;20207;-72
2023/07/24 12:05:58;;;;;;;2.10;2.00;;;18.90;99.90;;;;;;5014024;28;20583;-72
2023/07/24 12:08:33;;;;;;;2.00;1.90;;;18.80;99.90;;;;;;5013777;28;20226;-71
2023/07/24 12:10:59;;;;;;;2.00;1.90;;;18.60;99.90;;;;;;5012839;28;20172;-71
2023/07/24 12:13:24;;;;;;;1.80;1.70;;;18.80;99.90;;;;;;5012591;28;20172;-72
2023/07/24 12:15:50;;;;;;;1.83;1.73;;;19.00;99.90;;;;;;5014057;28;20766;-71
2023/07/24 12:18:16;;;;;;;1.80;1.70;;;19.30;99.90;;;;;;5013691;28;20207;-71
2023/07/24 12:20:41;;;;;;;1.90;1.80;;;20.00;99.90;;;;;;4994768;28;20287;-72
2023/07/24 12:23:07;;;;;;;2.00;1.90;;;20.20;99.90;;;;;;5004415;28;20208;-72
2023/07/24 12:25:32;;;;;;;1.80;1.70;;;19.90;99.90;;;;;;4992981;28;20613;-72
2023/07/24 12:27:58;;;;;;;2.00;1.90;;;19.90;99.90;;;;;;4993938;28;20196;-72
2023/07/24 12:30:24;;;;;;;1.80;1.70;;;20.10;99.90;;;;;;4994154;28;20169;-72
2023/07/24 12:32:49;;;;;;;1.90;1.80;;;20.30;99.90;;;;;;4992765;28;20406;-71
2023/07/24 12:35:17;;;;;;;2.03;1.93;;;20.20;99.90;;;;;;4994046;28;20189;-71
2023/07/24 12:37:43;;;;;;;1.90;1.80;;;20.20;99.90;;;;;;4993840;28;20632;-71
2023/07/24 12:40:09;;;;;;;1.93;1.83;;;20.50;99.90;;;;;;4994138;28;20251;-72
2023/07/24 12:42:35;;;;;;;1.90;1.80;;;20.70;99.90;;;;;;4993781;28;20670;-72
2023/07/24 12:45:02;;;;;;;1.90;1.80;;;20.70;99.90;;;;;;4993998;28;20217;-72